Terminal Aerodrome Forecast
Issued by NWS

Home | Current Version | Previous Version | Text Only | Print | Product List | Glossary On
Versions: 1 2 3 4 5 6 7 8 9 10 11 12
000
FTUS42 KGSP 240500
TAFAND
TAF
KAND 240537Z 2406/2506 07007KT P6SM SKC
     FM241800 11006KT P6SM FEW250
     FM242000 16006KT P6SM FEW250
     FM250400 09005KT P6SM BKN060=

USA.gov is the U.S. government's official web portal to all federal, state and local government web resources and services.